sensor_id;sensor_type;location;lat;lon;timestamp;P1;durP1;ratioP1;P2;durP2;ratioP2
1975;SDS011;988;48.016;7.800;2023-06-26T00:01:51;22.20;;;20.70;;
1975;SDS011;988;48.016;7.800;2023-06-26T00:04:16;22.10;;;20.70;;
1975;SDS011;988;48.016;7.800;2023-06-26T00:06:42;22.30;;;20.90;;
1975;SDS011;988;48.016;7.800;2023-06-26T00:09:07;21.70;;;20.40;;
1975;SDS011;988;48.016;7.800;2023-06-26T00:11:33;21.40;;;20.20;;
1975;SDS011;988;48.016;7.800;2023-06-26T00:13:59;21.10;;;19.90;;
1975;SDS011;988;48.016;7.800;2023-06-26T00:16:26;21.33;;;20.07;;
1975;SDS011;988;48.016;7.800;2023-06-26T00:18:52;20.80;;;19.50;;
1975;SDS011;988;48.016;7.800;2023-06-26T00:21:19;20.67;;;19.50;;
1975;SDS011;988;48.016;7.800;2023-06-26T00:23:45;20.90;;;19.70;;
1975;SDS011;988;48.016;7.800;2023-06-26T00:26:11;23.50;;;22.00;;
1975;SDS011;988;48.016;7.800;2023-06-26T00:28:37;22.00;;;20.60;;
1975;SDS011;988;48.016;7.800;2023-06-26T00:31:02;21.93;;;20.53;;
1975;SDS011;988;48.016;7.800;2023-06-26T00:33:28;21.73;;;20.43;;
1975;SDS011;988;48.016;7.800;2023-06-26T00:35:54;21.80;;;20.50;;
1975;SDS011;988;48.016;7.800;2023-06-26T00:38:19;21.50;;;20.10;;
1975;SDS011;988;48.016;7.800;2023-06-26T00:40:46;21.37;;;20.07;;
1975;SDS011;988;48.016;7.800;2023-06-26T00:43:11;21.20;;;19.90;;
1975;SDS011;988;48.016;7.800;2023-06-26T00:45:37;20.77;;;19.57;;
1975;SDS011;988;48.016;7.800;2023-06-26T00:48:02;22.33;;;20.93;;
1975;SDS011;988;48.016;7.800;2023-06-26T00:50:28;21.50;;;19.80;;
1975;SDS011;988;48.016;7.800;2023-06-26T00:52:54;21.47;;;20.03;;
1975;SDS011;988;48.016;7.800;2023-06-26T00:55:25;20.33;;;19.03;;
1975;SDS011;988;48.016;7.800;2023-06-26T00:57:51;21.47;;;20.17;;
1975;SDS011;988;48.016;7.800;2023-06-26T01:00:17;21.50;;;20.10;;
1975;SDS011;988;48.016;7.800;2023-06-26T01:02:43;20.23;;;19.03;;
1975;SDS011;988;48.016;7.800;2023-06-26T01:05:09;20.93;;;19.73;;
1975;SDS011;988;48.016;7.800;2023-06-26T01:07:38;21.70;;;20.40;;
1975;SDS011;988;48.016;7.800;2023-06-26T01:10:04;20.77;;;19.57;;
1975;SDS011;988;48.016;7.800;2023-06-26T01:12:34;21.10;;;19.90;;
1975;SDS011;988;48.016;7.800;2023-06-26T01:15:01;20.93;;;19.63;;
1975;SDS011;988;48.016;7.800;2023-06-26T01:17:27;21.60;;;20.10;;
1975;SDS011;988;48.016;7.800;2023-06-26T01:19:57;21.53;;;20.23;;
1975;SDS011;988;48.016;7.800;2023-06-26T01:22:27;21.57;;;20.30;;
1975;SDS011;988;48.016;7.800;2023-06-26T01:28:03;22.60;;;21.20;;
1975;SDS011;988;48.016;7.800;2023-06-26T01:30:31;21.27;;;19.97;;
1975;SDS011;988;48.016;7.800;2023-06-26T01:32:59;23.47;;;21.00;;
1975;SDS011;988;48.016;7.800;2023-06-26T01:35:26;21.00;;;19.50;;
1975;SDS011;988;48.016;7.800;2023-06-26T01:37:52;20.90;;;19.50;;
1975;SDS011;988;48.016;7.800;2023-06-26T01:40:18;20.83;;;19.53;;
1975;SDS011;988;48.016;7.800;2023-06-26T01:42:43;20.80;;;19.20;;
1975;SDS011;988;48.016;7.800;2023-06-26T01:45:21;20.27;;;19.07;;
1975;SDS011;988;48.016;7.800;2023-06-26T01:47:52;20.27;;;18.73;;
1975;SDS011;988;48.016;7.800;2023-06-26T01:50:20;20.43;;;19.17;;
1975;SDS011;988;48.016;7.800;2023-06-26T01:53:07;20.40;;;19.20;;
1975;SDS011;988;48.016;7.800;2023-06-26T01:55:47;21.03;;;19.73;;
1975;SDS011;988;48.016;7.800;2023-06-26T01:58:22;19.40;;;18.20;;
1975;SDS011;988;48.016;7.800;2023-06-26T02:00:50;20.83;;;19.53;;
1975;SDS011;988;48.016;7.800;2023-06-26T02:03:16;21.00;;;19.70;;
1975;SDS011;988;48.016;7.800;2023-06-26T02:05:41;20.40;;;19.10;;
1975;SDS011;988;48.016;7.800;2023-06-26T02:08:08;19.70;;;18.40;;
1975;SDS011;988;48.016;7.800;2023-06-26T02:10:34;19.70;;;18.40;;
1975;SDS011;988;48.016;7.800;2023-06-26T02:13:00;19.90;;;18.63;;
1975;SDS011;988;48.016;7.800;2023-06-26T02:15:25;20.27;;;19.00;;
1975;SDS011;988;48.016;7.800;2023-06-26T02:17:51;19.97;;;18.67;;
1975;SDS011;988;48.016;7.800;2023-06-26T02:20:17;20.57;;;19.17;;
1975;SDS011;988;48.016;7.800;2023-06-26T02:22:42;20.63;;;19.03;;
1975;SDS011;988;48.016;7.800;2023-06-26T02:25:08;20.90;;;19.30;;
1975;SDS011;988;48.016;7.800;2023-06-26T02:27:35;20.00;;;18.70;;
1975;SDS011;988;48.016;7.800;2023-06-26T02:30:01;21.57;;;19.97;;
1975;SDS011;988;48.016;7.800;2023-06-26T02:32:26;20.27;;;19.07;;
1975;SDS011;988;48.016;7.800;2023-06-26T02:34:52;19.80;;;18.60;;
1975;SDS011;988;48.016;7.800;2023-06-26T02:37:18;20.70;;;19.40;;
1975;SDS011;988;48.016;7.800;2023-06-26T02:39:44;20.37;;;19.10;;
1975;SDS011;988;48.016;7.800;2023-06-26T02:42:10;21.40;;;20.10;;
1975;SDS011;988;48.016;7.800;2023-06-26T02:44:35;20.43;;;19.00;;
1975;SDS011;988;48.016;7.800;2023-06-26T02:47:01;19.80;;;18.60;;
1975;SDS011;988;48.016;7.800;2023-06-26T02:49:27;20.27;;;18.80;;
1975;SDS011;988;48.016;7.800;2023-06-26T02:51:52;20.77;;;19.40;;
1975;SDS011;988;48.016;7.800;2023-06-26T02:54:18;20.37;;;19.07;;
1975;SDS011;988;48.016;7.800;2023-06-26T02:56:43;20.20;;;19.00;;
1975;SDS011;988;48.016;7.800;2023-06-26T02:59:09;19.87;;;18.60;;
1975;SDS011;988;48.016;7.800;2023-06-26T03:01:34;20.97;;;19.63;;
1975;SDS011;988;48.016;7.800;2023-06-26T03:04:00;20.43;;;18.97;;
1975;SDS011;988;48.016;7.800;2023-06-26T03:06:26;19.90;;;18.70;;
1975;SDS011;988;48.016;7.800;2023-06-26T03:08:52;19.97;;;18.73;;
1975;SDS011;988;48.016;7.800;2023-06-26T03:11:18;19.73;;;18.43;;
1975;SDS011;988;48.016;7.800;2023-06-26T03:13:44;20.33;;;18.50;;
1975;SDS011;988;48.016;7.800;2023-06-26T03:16:10;19.30;;;18.10;;
1975;SDS011;988;48.016;7.800;2023-06-26T03:18:36;19.87;;;18.67;;
1975;SDS011;988;48.016;7.800;2023-06-26T03:21:01;19.50;;;18.20;;
1975;SDS011;988;48.016;7.800;2023-06-26T03:23:27;19.43;;;18.13;;
1975;SDS011;988;48.016;7.800;2023-06-26T03:25:53;19.67;;;18.57;;
1975;SDS011;988;48.016;7.800;2023-06-26T03:28:19;19.90;;;18.70;;
1975;SDS011;988;48.016;7.800;2023-06-26T03:30:44;19.50;;;18.27;;
1975;SDS011;988;48.016;7.800;2023-06-26T03:33:10;20.23;;;18.93;;
1975;SDS011;988;48.016;7.800;2023-06-26T03:35:36;21.13;;;19.17;;
1975;SDS011;988;48.016;7.800;2023-06-26T03:38:03;21.10;;;19.63;;
1975;SDS011;988;48.016;7.800;2023-06-26T03:40:29;20.20;;;18.77;;
1975;SDS011;988;48.016;7.800;2023-06-26T03:42:55;19.03;;;17.90;;
1975;SDS011;988;48.016;7.800;2023-06-26T03:45:20;20.47;;;19.17;;
1975;SDS011;988;48.016;7.800;2023-06-26T03:47:46;20.70;;;19.30;;
1975;SDS011;988;48.016;7.800;2023-06-26T03:50:18;19.80;;;18.50;;
1975;SDS011;988;48.016;7.800;2023-06-26T03:52:44;19.37;;;18.17;;
1975;SDS011;988;48.016;7.800;2023-06-26T03:55:10;19.80;;;18.50;;
1975;SDS011;988;48.016;7.800;2023-06-26T03:57:35;18.60;;;17.50;;
1975;SDS011;988;48.016;7.800;2023-06-26T04:00:01;19.40;;;18.20;;
1975;SDS011;988;48.016;7.800;2023-06-26T04:02:31;19.27;;;18.07;;
1975;SDS011;988;48.016;7.800;2023-06-26T04:04:56;19.43;;;18.23;;
1975;SDS011;988;48.016;7.800;2023-06-26T04:07:22;19.07;;;17.87;;
1975;SDS011;988;48.016;7.800;2023-06-26T04:09:47;19.60;;;18.30;;
1975;SDS011;988;48.016;7.800;2023-06-26T04:12:13;20.67;;;19.30;;
1975;SDS011;988;48.016;7.800;2023-06-26T04:14:39;20.47;;;18.77;;
1975;SDS011;988;48.016;7.800;2023-06-26T04:17:04;21.17;;;19.60;;
1975;SDS011;988;48.016;7.800;2023-06-26T04:19:30;20.50;;;19.20;;
1975;SDS011;988;48.016;7.800;2023-06-26T04:21:55;20.87;;;19.60;;
1975;SDS011;988;48.016;7.800;2023-06-26T04:24:21;20.00;;;18.70;;
1975;SDS011;988;48.016;7.800;2023-06-26T04:26:47;20.57;;;19.27;;
1975;SDS011;988;48.016;7.800;2023-06-26T04:29:12;19.43;;;18.33;;
1975;SDS011;988;48.016;7.800;2023-06-26T04:31:38;20.70;;;19.37;;
1975;SDS011;988;48.016;7.800;2023-06-26T04:34:04;20.50;;;19.30;;
1975;SDS011;988;48.016;7.800;2023-06-26T04:36:30;21.87;;;20.57;;
1975;SDS011;988;48.016;7.800;2023-06-26T04:38:56;20.53;;;19.33;;
1975;SDS011;988;48.016;7.800;2023-06-26T04:41:23;20.53;;;19.33;;
1975;SDS011;988;48.016;7.800;2023-06-26T04:43:49;21.60;;;20.10;;
1975;SDS011;988;48.016;7.800;2023-06-26T04:46:14;21.37;;;19.83;;
1975;SDS011;988;48.016;7.800;2023-06-26T04:48:40;21.13;;;19.93;;
1975;SDS011;988;48.016;7.800;2023-06-26T04:51:05;21.50;;;19.90;;
1975;SDS011;988;48.016;7.800;2023-06-26T04:53:31;21.23;;;19.93;;
1975;SDS011;988;48.016;7.800;2023-06-26T04:55:57;20.90;;;19.50;;
1975;SDS011;988;48.016;7.800;2023-06-26T04:58:22;21.03;;;19.63;;
1975;SDS011;988;48.016;7.800;2023-06-26T05:00:48;21.23;;;20.03;;
1975;SDS011;988;48.016;7.800;2023-06-26T05:03:14;21.80;;;20.10;;
1975;SDS011;988;48.016;7.800;2023-06-26T05:05:42;21.23;;;19.90;;
1975;SDS011;988;48.016;7.800;2023-06-26T05:08:14;21.43;;;20.13;;
1975;SDS011;988;48.016;7.800;2023-06-26T05:10:47;21.60;;;20.20;;
1975;SDS011;988;48.016;7.800;2023-06-26T05:13:13;21.67;;;20.37;;
1975;SDS011;988;48.016;7.800;2023-06-26T05:15:42;21.43;;;20.07;;
1975;SDS011;988;48.016;7.800;2023-06-26T05:18:08;21.77;;;20.27;;
1975;SDS011;988;48.016;7.800;2023-06-26T05:20:34;21.63;;;20.13;;
1975;SDS011;988;48.016;7.800;2023-06-26T05:23:03;23.50;;;21.80;;
1975;SDS011;988;48.016;7.800;2023-06-26T05:25:30;22.30;;;20.57;;
1975;SDS011;988;48.016;7.800;2023-06-26T05:27:57;22.27;;;20.87;;
1975;SDS011;988;48.016;7.800;2023-06-26T05:30:23;22.57;;;21.07;;
1975;SDS011;988;48.016;7.800;2023-06-26T05:32:55;21.90;;;20.50;;
1975;SDS011;988;48.016;7.800;2023-06-26T05:35:24;22.10;;;20.70;;
1975;SDS011;988;48.016;7.800;2023-06-26T05:37:52;23.73;;;22.03;;
1975;SDS011;988;48.016;7.800;2023-06-26T05:40:20;23.33;;;21.93;;
1975;SDS011;988;48.016;7.800;2023-06-26T05:42:46;24.60;;;22.90;;
1975;SDS011;988;48.016;7.800;2023-06-26T05:45:12;23.00;;;21.60;;
1975;SDS011;988;48.016;7.800;2023-06-26T05:47:37;22.90;;;21.40;;
1975;SDS011;988;48.016;7.800;2023-06-26T05:50:03;22.83;;;21.23;;
1975;SDS011;988;48.016;7.800;2023-06-26T05:52:29;21.47;;;20.30;;
1975;SDS011;988;48.016;7.800;2023-06-26T05:54:56;23.40;;;21.27;;
1975;SDS011;988;48.016;7.800;2023-06-26T05:57:26;22.73;;;21.43;;
1975;SDS011;988;48.016;7.800;2023-06-26T05:59:53;22.87;;;21.57;;
1975;SDS011;988;48.016;7.800;2023-06-26T06:02:18;23.93;;;22.47;;
1975;SDS011;988;48.016;7.800;2023-06-26T06:04:44;23.43;;;22.13;;
1975;SDS011;988;48.016;7.800;2023-06-26T06:07:10;26.00;;;24.40;;
1975;SDS011;988;48.016;7.800;2023-06-26T06:09:36;25.33;;;23.53;;
1975;SDS011;988;48.016;7.800;2023-06-26T06:12:02;26.00;;;24.10;;
1975;SDS011;988;48.016;7.800;2023-06-26T06:14:32;25.80;;;24.10;;
1975;SDS011;988;48.016;7.800;2023-06-26T06:16:58;26.50;;;24.70;;
1975;SDS011;988;48.016;7.800;2023-06-26T06:19:23;26.03;;;24.43;;
1975;SDS011;988;48.016;7.800;2023-06-26T06:21:49;26.20;;;24.70;;
1975;SDS011;988;48.016;7.800;2023-06-26T06:24:15;26.40;;;24.80;;
1975;SDS011;988;48.016;7.800;2023-06-26T06:26:40;27.10;;;25.60;;
1975;SDS011;988;48.016;7.800;2023-06-26T06:29:06;27.10;;;25.50;;
1975;SDS011;988;48.016;7.800;2023-06-26T06:31:32;28.00;;;26.30;;
1975;SDS011;988;48.016;7.800;2023-06-26T06:33:57;26.30;;;24.90;;
1975;SDS011;988;48.016;7.800;2023-06-26T06:36:23;26.70;;;25.20;;
1975;SDS011;988;48.016;7.800;2023-06-26T06:38:51;25.77;;;24.30;;
1975;SDS011;988;48.016;7.800;2023-06-26T06:41:17;24.90;;;23.40;;
1975;SDS011;988;48.016;7.800;2023-06-26T06:43:42;26.00;;;24.60;;
1975;SDS011;988;48.016;7.800;2023-06-26T06:46:08;26.80;;;25.00;;
1975;SDS011;988;48.016;7.800;2023-06-26T06:48:34;28.20;;;26.40;;
1975;SDS011;988;48.016;7.800;2023-06-26T06:50:59;27.80;;;26.20;;
1975;SDS011;988;48.016;7.800;2023-06-26T06:53:25;27.03;;;25.53;;
1975;SDS011;988;48.016;7.800;2023-06-26T06:55:51;26.63;;;24.83;;
1975;SDS011;988;48.016;7.800;2023-06-26T06:58:16;27.23;;;25.63;;
1975;SDS011;988;48.016;7.800;2023-06-26T07:00:44;27.73;;;26.13;;
1975;SDS011;988;48.016;7.800;2023-06-26T07:03:09;25.87;;;24.47;;
1975;SDS011;988;48.016;7.800;2023-06-26T07:05:35;26.27;;;24.60;;
1975;SDS011;988;48.016;7.800;2023-06-26T07:08:01;27.23;;;25.53;;
1975;SDS011;988;48.016;7.800;2023-06-26T07:10:28;27.03;;;25.53;;
1975;SDS011;988;48.016;7.800;2023-06-26T07:12:54;27.33;;;25.67;;
1975;SDS011;988;48.016;7.800;2023-06-26T07:15:20;26.30;;;24.80;;
1975;SDS011;988;48.016;7.800;2023-06-26T07:17:46;26.87;;;25.33;;
1975;SDS011;988;48.016;7.800;2023-06-26T07:20:11;26.90;;;25.20;;
1975;SDS011;988;48.016;7.800;2023-06-26T07:22:40;25.77;;;24.27;;
1975;SDS011;988;48.016;7.800;2023-06-26T07:25:06;25.80;;;24.40;;
1975;SDS011;988;48.016;7.800;2023-06-26T07:27:34;27.20;;;25.30;;
1975;SDS011;988;48.016;7.800;2023-06-26T07:30:00;26.13;;;24.63;;
1975;SDS011;988;48.016;7.800;2023-06-26T07:32:26;26.00;;;24.40;;
1975;SDS011;988;48.016;7.800;2023-06-26T07:34:52;27.63;;;26.03;;
1975;SDS011;988;48.016;7.800;2023-06-26T07:37:17;27.50;;;25.80;;
1975;SDS011;988;48.016;7.800;2023-06-26T07:39:43;27.90;;;25.17;;
1975;SDS011;988;48.016;7.800;2023-06-26T07:42:09;26.20;;;24.57;;
1975;SDS011;988;48.016;7.800;2023-06-26T07:44:34;27.40;;;25.53;;
1975;SDS011;988;48.016;7.800;2023-06-26T07:47:00;27.70;;;26.00;;
1975;SDS011;988;48.016;7.800;2023-06-26T07:49:25;27.70;;;26.10;;
1975;SDS011;988;48.016;7.800;2023-06-26T07:51:51;28.37;;;26.67;;
1975;SDS011;988;48.016;7.800;2023-06-26T07:54:16;27.70;;;26.10;;
1975;SDS011;988;48.016;7.800;2023-06-26T07:56:58;28.50;;;26.70;;
1975;SDS011;988;48.016;7.800;2023-06-26T07:59:25;27.93;;;26.23;;
1975;SDS011;988;48.016;7.800;2023-06-26T08:01:53;25.87;;;24.03;;
1975;SDS011;988;48.016;7.800;2023-06-26T08:04:20;25.83;;;24.03;;
1975;SDS011;988;48.016;7.800;2023-06-26T08:06:47;25.70;;;24.10;;
1975;SDS011;988;48.016;7.800;2023-06-26T08:09:14;25.90;;;24.40;;
1975;SDS011;988;48.016;7.800;2023-06-26T08:11:40;26.30;;;24.60;;
1975;SDS011;988;48.016;7.800;2023-06-26T08:14:05;25.97;;;24.47;;
1975;SDS011;988;48.016;7.800;2023-06-26T08:16:31;27.37;;;25.60;;
1975;SDS011;988;48.016;7.800;2023-06-26T08:18:57;24.93;;;23.53;;
1975;SDS011;988;48.016;7.800;2023-06-26T08:21:22;26.37;;;24.53;;
1975;SDS011;988;48.016;7.800;2023-06-26T08:23:49;24.90;;;23.40;;
1975;SDS011;988;48.016;7.800;2023-06-26T08:26:15;24.83;;;23.10;;
1975;SDS011;988;48.016;7.800;2023-06-26T08:28:41;27.47;;;25.57;;
1975;SDS011;988;48.016;7.800;2023-06-26T08:31:07;26.83;;;25.30;;
1975;SDS011;988;48.016;7.800;2023-06-26T08:33:32;27.13;;;25.53;;
1975;SDS011;988;48.016;7.800;2023-06-26T08:35:58;26.23;;;24.43;;
1975;SDS011;988;48.016;7.800;2023-06-26T08:38:25;26.10;;;24.60;;
1975;SDS011;988;48.016;7.800;2023-06-26T08:40:50;27.10;;;25.50;;
1975;SDS011;988;48.016;7.800;2023-06-26T08:43:16;28.70;;;26.70;;
1975;SDS011;988;48.016;7.800;2023-06-26T08:45:42;28.80;;;26.70;;
1975;SDS011;988;48.016;7.800;2023-06-26T08:48:08;28.40;;;26.80;;
1975;SDS011;988;48.016;7.800;2023-06-26T08:50:34;28.10;;;26.20;;
1975;SDS011;988;48.016;7.800;2023-06-26T08:53:09;28.00;;;26.40;;
1975;SDS011;988;48.016;7.800;2023-06-26T08:55:38;27.80;;;25.90;;
1975;SDS011;988;48.016;7.800;2023-06-26T08:58:06;29.03;;;27.43;;
1975;SDS011;988;48.016;7.800;2023-06-26T09:00:32;28.23;;;26.23;;
1975;SDS011;988;48.016;7.800;2023-06-26T09:02:57;28.33;;;26.73;;
1975;SDS011;988;48.016;7.800;2023-06-26T09:05:25;28.60;;;27.00;;
1975;SDS011;988;48.016;7.800;2023-06-26T09:07:52;27.83;;;26.03;;
1975;SDS011;988;48.016;7.800;2023-06-26T09:10:20;27.73;;;26.13;;
1975;SDS011;988;48.016;7.800;2023-06-26T09:12:46;27.47;;;25.97;;
1975;SDS011;988;48.016;7.800;2023-06-26T09:15:19;29.50;;;27.90;;
1975;SDS011;988;48.016;7.800;2023-06-26T09:17:45;28.37;;;26.77;;
1975;SDS011;988;48.016;7.800;2023-06-26T09:20:13;26.77;;;25.17;;
1975;SDS011;988;48.016;7.800;2023-06-26T09:22:40;28.30;;;26.70;;
1975;SDS011;988;48.016;7.800;2023-06-26T09:25:07;28.67;;;26.97;;
1975;SDS011;988;48.016;7.800;2023-06-26T09:27:34;28.97;;;26.97;;
1975;SDS011;988;48.016;7.800;2023-06-26T09:30:03;28.47;;;26.67;;
1975;SDS011;988;48.016;7.800;2023-06-26T09:32:33;27.27;;;25.57;;
1975;SDS011;988;48.016;7.800;2023-06-26T09:35:02;26.30;;;24.80;;
1975;SDS011;988;48.016;7.800;2023-06-26T09:37:29;27.27;;;25.60;;
1975;SDS011;988;48.016;7.800;2023-06-26T09:39:55;29.43;;;27.53;;
1975;SDS011;988;48.016;7.800;2023-06-26T09:42:20;27.07;;;25.47;;
1975;SDS011;988;48.016;7.800;2023-06-26T09:44:48;29.43;;;27.47;;
1975;SDS011;988;48.016;7.800;2023-06-26T09:47:18;28.33;;;26.10;;
1975;SDS011;988;48.016;7.800;2023-06-26T09:49:44;28.87;;;26.83;;
1975;SDS011;988;48.016;7.800;2023-06-26T09:52:16;29.30;;;27.70;;
1975;SDS011;988;48.016;7.800;2023-06-26T09:54:43;32.00;;;29.90;;
1975;SDS011;988;48.016;7.800;2023-06-26T09:57:11;29.50;;;27.90;;
1975;SDS011;988;48.016;7.800;2023-06-26T09:59:38;28.70;;;26.90;;
1975;SDS011;988;48.016;7.800;2023-06-26T10:02:05;28.70;;;27.03;;
1975;SDS011;988;48.016;7.800;2023-06-26T10:04:30;28.03;;;26.43;;
1975;SDS011;988;48.016;7.800;2023-06-26T10:06:57;27.40;;;25.80;;
1975;SDS011;988;48.016;7.800;2023-06-26T10:09:26;27.57;;;25.80;;
1975;SDS011;988;48.016;7.800;2023-06-26T10:11:57;28.00;;;26.10;;
1975;SDS011;988;48.016;7.800;2023-06-26T10:14:28;27.00;;;25.50;;
1975;SDS011;988;48.016;7.800;2023-06-26T10:16:59;28.00;;;26.50;;
1975;SDS011;988;48.016;7.800;2023-06-26T10:19:28;28.87;;;27.13;;
1975;SDS011;988;48.016;7.800;2023-06-26T10:21:56;28.70;;;26.73;;
1975;SDS011;988;48.016;7.800;2023-06-26T10:24:23;28.33;;;26.60;;
1975;SDS011;988;48.016;7.800;2023-06-26T10:27:02;28.07;;;26.23;;
1975;SDS011;988;48.016;7.800;2023-06-26T10:29:32;27.43;;;25.73;;
1975;SDS011;988;48.016;7.800;2023-06-26T10:32:00;27.87;;;25.37;;
1975;SDS011;988;48.016;7.800;2023-06-26T10:34:29;25.27;;;23.50;;
1975;SDS011;988;48.016;7.800;2023-06-26T10:37:04;25.17;;;23.40;;
1975;SDS011;988;48.016;7.800;2023-06-26T10:39:48;25.53;;;24.03;;
1975;SDS011;988;48.016;7.800;2023-06-26T10:42:15;24.77;;;23.27;;
1975;SDS011;988;48.016;7.800;2023-06-26T10:44:45;24.33;;;23.00;;
1975;SDS011;988;48.016;7.800;2023-06-26T10:47:28;25.50;;;23.83;;
1975;SDS011;988;48.016;7.800;2023-06-26T10:50:31;25.97;;;24.37;;
1975;SDS011;988;48.016;7.800;2023-06-26T11:01:13;25.13;;;23.63;;
1975;SDS011;988;48.016;7.800;2023-06-26T11:03:47;26.60;;;25.10;;
1975;SDS011;988;48.016;7.800;2023-06-26T11:06:18;27.70;;;26.20;;
1975;SDS011;988;48.016;7.800;2023-06-26T11:11:12;28.23;;;26.70;;
1975;SDS011;988;48.016;7.800;2023-06-26T11:13:39;28.80;;;27.20;;
1975;SDS011;988;48.016;7.800;2023-06-26T11:16:05;26.87;;;25.47;;
1975;SDS011;988;48.016;7.800;2023-06-26T11:18:31;29.13;;;27.48;;
1975;SDS011;988;48.016;7.800;2023-06-26T11:21:10;28.07;;;26.30;;
1975;SDS011;988;48.016;7.800;2023-06-26T11:23:39;28.67;;;27.07;;
1975;SDS011;988;48.016;7.800;2023-06-26T11:26:21;28.00;;;26.40;;
1975;SDS011;988;48.016;7.800;2023-06-26T11:28:56;28.50;;;26.83;;
1975;SDS011;988;48.016;7.800;2023-06-26T11:33:52;30.10;;;27.77;;
1975;SDS011;988;48.016;7.800;2023-06-26T11:36:18;29.27;;;27.57;;
1975;SDS011;988;48.016;7.800;2023-06-26T11:38:44;27.37;;;25.77;;
1975;SDS011;988;48.016;7.800;2023-06-26T11:41:09;29.00;;;27.17;;
1975;SDS011;988;48.016;7.800;2023-06-26T11:43:35;27.63;;;26.13;;
1975;SDS011;988;48.016;7.800;2023-06-26T11:46:01;26.10;;;24.43;;
1975;SDS011;988;48.016;7.800;2023-06-26T11:48:26;26.00;;;24.50;;
1975;SDS011;988;48.016;7.800;2023-06-26T11:50:53;26.07;;;24.67;;
1975;SDS011;988;48.016;7.800;2023-06-26T11:53:19;25.70;;;24.10;;
1975;SDS011;988;48.016;7.800;2023-06-26T11:55:45;25.10;;;23.60;;
1975;SDS011;988;48.016;7.800;2023-06-26T11:58:10;25.73;;;24.07;;
1975;SDS011;988;48.016;7.800;2023-06-26T12:00:40;25.97;;;24.27;;
1975;SDS011;988;48.016;7.800;2023-06-26T12:03:09;25.57;;;24.07;;
1975;SDS011;988;48.016;7.800;2023-06-26T12:05:35;25.63;;;24.00;;
1975;SDS011;988;48.016;7.800;2023-06-26T12:08:01;24.27;;;22.87;;
1975;SDS011;988;48.016;7.800;2023-06-26T12:10:28;25.93;;;24.30;;
1975;SDS011;988;48.016;7.800;2023-06-26T12:12:54;24.63;;;23.00;;
1975;SDS011;988;48.016;7.800;2023-06-26T12:15:23;25.10;;;23.50;;
1975;SDS011;988;48.016;7.800;2023-06-26T12:17:49;24.97;;;23.43;;
1975;SDS011;988;48.016;7.800;2023-06-26T12:20:21;25.00;;;23.53;;
1975;SDS011;988;48.016;7.800;2023-06-26T12:22:48;26.00;;;24.40;;
1975;SDS011;988;48.016;7.800;2023-06-26T12:25:15;24.03;;;22.83;;
1975;SDS011;988;48.016;7.800;2023-06-26T12:27:45;24.80;;;23.40;;
1975;SDS011;988;48.016;7.800;2023-06-26T12:30:11;24.90;;;23.33;;
1975;SDS011;988;48.016;7.800;2023-06-26T12:32:37;24.73;;;22.97;;
1975;SDS011;988;48.016;7.800;2023-06-26T12:35:03;24.47;;;22.97;;
1975;SDS011;988;48.016;7.800;2023-06-26T12:37:28;24.20;;;22.70;;
1975;SDS011;988;48.016;7.800;2023-06-26T12:40:01;23.90;;;22.60;;
1975;SDS011;988;48.016;7.800;2023-06-26T12:42:32;24.00;;;22.60;;
1975;SDS011;988;48.016;7.800;2023-06-26T12:44:58;25.07;;;23.57;;
1975;SDS011;988;48.016;7.800;2023-06-26T12:47:25;24.20;;;22.90;;
1975;SDS011;988;48.016;7.800;2023-06-26T12:49:52;24.80;;;23.20;;
1975;SDS011;988;48.016;7.800;2023-06-26T12:52:20;24.20;;;22.70;;
1975;SDS011;988;48.016;7.800;2023-06-26T12:54:46;24.80;;;23.37;;
1975;SDS011;988;48.016;7.800;2023-06-26T12:57:17;24.40;;;22.83;;
1975;SDS011;988;48.016;7.800;2023-06-26T12:59:42;25.47;;;24.07;;
1975;SDS011;988;48.016;7.800;2023-06-26T13:02:08;26.73;;;25.07;;
1975;SDS011;988;48.016;7.800;2023-06-26T13:04:36;26.27;;;24.87;;
1975;SDS011;988;48.016;7.800;2023-06-26T13:07:04;25.90;;;24.30;;
1975;SDS011;988;48.016;7.800;2023-06-26T13:09:32;25.03;;;23.63;;
1975;SDS011;988;48.016;7.800;2023-06-26T13:11:58;25.30;;;23.90;;
1975;SDS011;988;48.016;7.800;2023-06-26T13:14:24;25.13;;;23.73;;
1975;SDS011;988;48.016;7.800;2023-06-26T13:16:49;24.90;;;23.40;;
1975;SDS011;988;48.016;7.800;2023-06-26T13:19:15;24.53;;;23.23;;
1975;SDS011;988;48.016;7.800;2023-06-26T13:21:40;23.80;;;22.50;;
1975;SDS011;988;48.016;7.800;2023-06-26T13:24:06;24.23;;;22.83;;
1975;SDS011;988;48.016;7.800;2023-06-26T13:26:32;24.57;;;23.07;;
1975;SDS011;988;48.016;7.800;2023-06-26T13:28:58;24.10;;;22.80;;
1975;SDS011;988;48.016;7.800;2023-06-26T13:31:24;24.97;;;23.57;;
1975;SDS011;988;48.016;7.800;2023-06-26T13:33:49;23.10;;;21.80;;
1975;SDS011;988;48.016;7.800;2023-06-26T13:36:16;24.37;;;22.93;;
1975;SDS011;988;48.016;7.800;2023-06-26T13:38:41;24.20;;;22.73;;
1975;SDS011;988;48.016;7.800;2023-06-26T13:41:07;23.27;;;22.07;;
1975;SDS011;988;48.016;7.800;2023-06-26T13:43:33;24.33;;;22.43;;
1975;SDS011;988;48.016;7.800;2023-06-26T13:45:58;25.53;;;23.93;;
1975;SDS011;988;48.016;7.800;2023-06-26T13:48:25;24.70;;;23.20;;
1975;SDS011;988;48.016;7.800;2023-06-26T13:50:50;23.83;;;22.53;;
1975;SDS011;988;48.016;7.800;2023-06-26T13:53:16;24.20;;;22.80;;
1975;SDS011;988;48.016;7.800;2023-06-26T13:55:42;24.20;;;22.90;;
1975;SDS011;988;48.016;7.800;2023-06-26T13:58:08;24.10;;;22.60;;
1975;SDS011;988;48.016;7.800;2023-06-26T14:00:35;23.97;;;22.43;;
1975;SDS011;988;48.016;7.800;2023-06-26T14:03:01;24.30;;;22.83;;
1975;SDS011;988;48.016;7.800;2023-06-26T14:05:28;22.80;;;21.60;;
1975;SDS011;988;48.016;7.800;2023-06-26T14:08:04;24.10;;;22.60;;
1975;SDS011;988;48.016;7.800;2023-06-26T14:10:31;23.40;;;22.10;;
1975;SDS011;988;48.016;7.800;2023-06-26T14:13:01;24.23;;;22.93;;
1975;SDS011;988;48.016;7.800;2023-06-26T14:15:28;24.37;;;22.70;;
1975;SDS011;988;48.016;7.800;2023-06-26T14:17:53;23.00;;;21.60;;
1975;SDS011;988;48.016;7.800;2023-06-26T14:20:20;22.50;;;21.10;;
1975;SDS011;988;48.016;7.800;2023-06-26T14:22:47;23.37;;;22.07;;
1975;SDS011;988;48.016;7.800;2023-06-26T14:25:14;23.27;;;21.63;;
1975;SDS011;988;48.016;7.800;2023-06-26T14:27:41;23.00;;;21.70;;
1975;SDS011;988;48.016;7.800;2023-06-26T14:30:07;23.10;;;21.47;;
1975;SDS011;988;48.016;7.800;2023-06-26T14:32:33;22.93;;;21.63;;
1975;SDS011;988;48.016;7.800;2023-06-26T14:34:59;22.80;;;21.60;;
1975;SDS011;988;48.016;7.800;2023-06-26T14:37:26;23.07;;;21.87;;
1975;SDS011;988;48.016;7.800;2023-06-26T14:39:52;22.80;;;21.30;;
1975;SDS011;988;48.016;7.800;2023-06-26T14:42:17;23.73;;;22.53;;
1975;SDS011;988;48.016;7.800;2023-06-26T14:44:43;22.30;;;21.10;;
1975;SDS011;988;48.016;7.800;2023-06-26T14:47:11;23.17;;;21.67;;
1975;SDS011;988;48.016;7.800;2023-06-26T14:49:37;23.37;;;22.07;;
1975;SDS011;988;48.016;7.800;2023-06-26T14:52:03;23.13;;;21.87;;
1975;SDS011;988;48.016;7.800;2023-06-26T14:54:29;24.23;;;22.63;;
1975;SDS011;988;48.016;7.800;2023-06-26T14:56:54;23.10;;;21.80;;
1975;SDS011;988;48.016;7.800;2023-06-26T14:59:20;23.67;;;21.97;;
1975;SDS011;988;48.016;7.800;2023-06-26T15:01:45;22.27;;;21.10;;
1975;SDS011;988;48.016;7.800;2023-06-26T15:04:11;23.90;;;22.50;;
1975;SDS011;988;48.016;7.800;2023-06-26T15:06:37;23.77;;;22.37;;
1975;SDS011;988;48.016;7.800;2023-06-26T15:09:02;24.33;;;22.87;;
1975;SDS011;988;48.016;7.800;2023-06-26T15:11:28;25.33;;;23.50;;
1975;SDS011;988;48.016;7.800;2023-06-26T15:13:54;26.60;;;24.70;;
1975;SDS011;988;48.016;7.800;2023-06-26T15:16:20;25.77;;;23.97;;